sensor_id;sensor_type;location;lat;lon;timestamp;pressure;altitude;pressure_sealevel;temperature;humidity
29879;BME280;16752;53.364;-1.488;2023-06-10T00:01:25;100465.53;;;20.14;40.13
29879;BME280;16752;53.364;-1.488;2023-06-10T00:07:29;100650.53;;;21.37;40.11
29879;BME280;16752;53.364;-1.488;2023-06-10T00:10:14;100558.66;;;20.91;39.99
29879;BME280;16752;53.364;-1.488;2023-06-10T00:22:42;100568.31;;;20.92;39.79
29879;BME280;16752;53.364;-1.488;2023-06-10T00:47:04;100481.34;;;20.58;39.95
29879;BME280;16752;53.364;-1.488;2023-06-10T00:50:11;100622.22;;;21.44;39.71
29879;BME280;16752;53.364;-1.488;2023-06-10T00:52:58;100566.34;;;20.52;40.90
29879;BME280;16752;53.364;-1.488;2023-06-10T00:55:54;100621.91;;;21.39;39.92
29879;BME280;16752;53.364;-1.488;2023-06-10T00:58:44;100634.00;;;21.25;40.48
29879;BME280;16752;53.364;-1.488;2023-06-10T01:01:29;100501.88;;;20.66;40.00
29879;BME280;16752;53.364;-1.488;2023-06-10T01:04:13;100528.66;;;20.64;40.39
29879;BME280;16752;53.364;-1.488;2023-06-10T01:07:24;100608.81;;;21.12;40.46
29879;BME280;16752;53.364;-1.488;2023-06-10T01:13:06;100562.84;;;20.43;41.85
29879;BME280;16752;53.364;-1.488;2023-06-10T01:15:56;100479.91;;;20.22;41.26
29879;BME280;16752;53.364;-1.488;2023-06-10T01:18:43;100515.75;;;20.43;41.31
29879;BME280;16752;53.364;-1.488;2023-06-10T01:21:54;100453.06;;;20.07;41.43
29879;BME280;16752;53.364;-1.488;2023-06-10T01:24:42;100448.59;;;20.15;40.88
29879;BME280;16752;53.364;-1.488;2023-06-10T01:27:30;100446.50;;;20.27;40.62
29879;BME280;16752;53.364;-1.488;2023-06-10T01:30:22;100550.31;;;20.09;43.02
29879;BME280;16752;53.364;-1.488;2023-06-10T01:33:16;100538.16;;;20.75;41.10
29879;BME280;16752;53.364;-1.488;2023-06-10T01:39:09;100546.13;;;20.67;41.58
29879;BME280;16752;53.364;-1.488;2023-06-10T01:42:03;100469.75;;;20.25;41.39
29879;BME280;16752;53.364;-1.488;2023-06-10T01:44:51;100455.78;;;20.23;41.67
29879;BME280;16752;53.364;-1.488;2023-06-10T01:47:35;100503.97;;;20.54;41.45
29879;BME280;16752;53.364;-1.488;2023-06-10T01:50:19;100525.16;;;20.30;42.58
29879;BME280;16752;53.364;-1.488;2023-06-10T01:53:03;100490.06;;;20.34;41.93
29879;BME280;16752;53.364;-1.488;2023-06-10T01:55:48;100576.00;;;21.03;41.48
29879;BME280;16752;53.364;-1.488;2023-06-10T01:58:34;100463.94;;;20.22;41.64
29879;BME280;16752;53.364;-1.488;2023-06-10T02:01:19;100468.53;;;20.11;42.28
29879;BME280;16752;53.364;-1.488;2023-06-10T02:04:05;100441.34;;;19.92;42.01
29879;BME280;16752;53.364;-1.488;2023-06-10T02:06:52;100525.63;;;20.59;41.96
29879;BME280;16752;53.364;-1.488;2023-06-10T02:09:37;100488.41;;;20.33;41.28
29879;BME280;16752;53.364;-1.488;2023-06-10T02:12:21;100453.03;;;19.73;42.56
29879;BME280;16752;53.364;-1.488;2023-06-10T02:15:08;100443.31;;;19.12;43.55
29879;BME280;16752;53.364;-1.488;2023-06-10T02:17:52;100448.66;;;19.56;42.75
29879;BME280;16752;53.364;-1.488;2023-06-10T02:20:39;100444.56;;;20.03;41.65
29879;BME280;16752;53.364;-1.488;2023-06-10T02:23:26;100490.88;;;20.27;42.11
29879;BME280;16752;53.364;-1.488;2023-06-10T02:26:22;100418.66;;;19.71;42.37
29879;BME280;16752;53.364;-1.488;2023-06-10T02:29:16;100517.94;;;20.48;41.72
29879;BME280;16752;53.364;-1.488;2023-06-10T02:32:18;100482.06;;;20.26;41.81
29879;BME280;16752;53.364;-1.488;2023-06-10T02:35:03;100507.50;;;19.51;44.30
29879;BME280;16752;53.364;-1.488;2023-06-10T02:37:50;100472.06;;;20.20;42.18
29879;BME280;16752;53.364;-1.488;2023-06-10T02:40:49;100573.16;;;20.88;41.50
29879;BME280;16752;53.364;-1.488;2023-06-10T02:43:33;100468.94;;;20.25;41.71
29879;BME280;16752;53.364;-1.488;2023-06-10T02:46:17;100425.97;;;20.11;41.58
29879;BME280;16752;53.364;-1.488;2023-06-10T02:49:01;100434.19;;;19.92;41.83
29879;BME280;16752;53.364;-1.488;2023-06-10T02:51:46;100493.00;;;20.49;41.28
29879;BME280;16752;53.364;-1.488;2023-06-10T02:54:30;100519.63;;;20.57;41.45
29879;BME280;16752;53.364;-1.488;2023-06-10T02:57:14;100496.31;;;20.43;41.66
29879;BME280;16752;53.364;-1.488;2023-06-10T02:59:58;100490.97;;;20.43;41.68
29879;BME280;16752;53.364;-1.488;2023-06-10T03:02:43;100465.97;;;20.36;41.24
29879;BME280;16752;53.364;-1.488;2023-06-10T03:05:30;100434.03;;;19.94;41.75
29879;BME280;16752;53.364;-1.488;2023-06-10T03:08:17;100470.03;;;20.14;42.07
29879;BME280;16752;53.364;-1.488;2023-06-10T03:11:09;100435.97;;;19.75;42.61
29879;BME280;16752;53.364;-1.488;2023-06-10T03:17:53;100457.63;;;20.23;41.80
29879;BME280;16752;53.364;-1.488;2023-06-10T03:20:36;100440.28;;;20.10;41.85
29879;BME280;16752;53.364;-1.488;2023-06-10T03:23:21;100539.63;;;20.61;42.14
29879;BME280;16752;53.364;-1.488;2023-06-10T03:26:05;100504.13;;;20.44;42.32
29879;BME280;16752;53.364;-1.488;2023-06-10T03:28:49;100511.31;;;20.60;42.20
29879;BME280;16752;53.364;-1.488;2023-06-10T03:31:33;100460.19;;;20.06;42.89
29879;BME280;16752;53.364;-1.488;2023-06-10T03:34:18;100426.44;;;19.21;44.61
29879;BME280;16752;53.364;-1.488;2023-06-10T03:37:03;100482.06;;;20.26;42.33
29879;BME280;16752;53.364;-1.488;2023-06-10T03:39:47;100451.47;;;20.22;42.38
29879;BME280;16752;53.364;-1.488;2023-06-10T03:42:31;100482.34;;;20.49;42.15
29879;BME280;16752;53.364;-1.488;2023-06-10T03:45:15;100439.31;;;20.20;41.81
29879;BME280;16752;53.364;-1.488;2023-06-10T03:48:01;100564.88;;;20.57;42.96
29879;BME280;16752;53.364;-1.488;2023-06-10T03:50:45;100398.53;;;19.69;42.87
29879;BME280;16752;53.364;-1.488;2023-06-10T03:53:31;100484.59;;;20.36;42.55
29879;BME280;16752;53.364;-1.488;2023-06-10T03:56:15;100413.94;;;19.91;42.42
29879;BME280;16752;53.364;-1.488;2023-06-10T03:58:59;100441.59;;;20.06;42.79
29879;BME280;16752;53.364;-1.488;2023-06-10T04:01:43;100466.88;;;20.10;42.91
29879;BME280;16752;53.364;-1.488;2023-06-10T04:04:28;100461.88;;;20.07;43.05
29879;BME280;16752;53.364;-1.488;2023-06-10T04:07:15;100513.47;;;20.57;42.84
29879;BME280;16752;53.364;-1.488;2023-06-10T04:09:59;100498.16;;;20.51;42.40
29879;BME280;16752;53.364;-1.488;2023-06-10T04:12:44;100468.84;;;20.08;43.19
29879;BME280;16752;53.364;-1.488;2023-06-10T04:15:28;100443.56;;;19.96;43.33
29879;BME280;16752;53.364;-1.488;2023-06-10T04:18:13;100485.66;;;20.43;42.35
29879;BME280;16752;53.364;-1.488;2023-06-10T04:20:57;100535.31;;;20.68;42.86
29879;BME280;16752;53.364;-1.488;2023-06-10T04:23:41;100487.66;;;20.41;42.84
29879;BME280;16752;53.364;-1.488;2023-06-10T04:26:25;100485.91;;;20.32;43.06
29879;BME280;16752;53.364;-1.488;2023-06-10T04:29:09;100452.91;;;20.08;42.93
29879;BME280;16752;53.364;-1.488;2023-06-10T04:31:53;100497.59;;;20.39;42.76
29879;BME280;16752;53.364;-1.488;2023-06-10T04:34:38;100434.75;;;19.96;43.07
29879;BME280;16752;53.364;-1.488;2023-06-10T04:37:25;100542.22;;;20.19;44.14
29879;BME280;16752;53.364;-1.488;2023-06-10T04:40:09;100430.44;;;19.69;43.97
29879;BME280;16752;53.364;-1.488;2023-06-10T04:42:54;100541.06;;;20.56;43.37
29879;BME280;16752;53.364;-1.488;2023-06-10T04:45:38;100363.31;;;19.67;42.63
29879;BME280;16752;53.364;-1.488;2023-06-10T04:48:24;100440.34;;;19.93;43.11
29879;BME280;16752;53.364;-1.488;2023-06-10T04:51:11;100541.69;;;20.84;42.61
29879;BME280;16752;53.364;-1.488;2023-06-10T04:53:56;100533.00;;;20.82;42.57
29879;BME280;16752;53.364;-1.488;2023-06-10T04:56:39;100382.00;;;19.83;42.66
29879;BME280;16752;53.364;-1.488;2023-06-10T04:59:24;100539.03;;;20.92;42.24
29879;BME280;16752;53.364;-1.488;2023-06-10T05:02:08;100451.56;;;20.04;42.90
29879;BME280;16752;53.364;-1.488;2023-06-10T05:04:52;100436.69;;;20.36;42.12
29879;BME280;16752;53.364;-1.488;2023-06-10T05:07:37;100445.31;;;20.30;42.27
29879;BME280;16752;53.364;-1.488;2023-06-10T05:10:22;100428.69;;;20.28;42.16
29879;BME280;16752;53.364;-1.488;2023-06-10T05:13:05;100370.06;;;19.95;42.17
29879;BME280;16752;53.364;-1.488;2023-06-10T05:15:49;100475.41;;;20.64;41.87
29879;BME280;16752;53.364;-1.488;2023-06-10T05:18:33;100454.28;;;20.63;41.89
29879;BME280;16752;53.364;-1.488;2023-06-10T05:21:17;100406.81;;;20.42;41.86
29879;BME280;16752;53.364;-1.488;2023-06-10T05:24:01;100409.41;;;20.34;41.96
29879;BME280;16752;53.364;-1.488;2023-06-10T05:26:46;100425.84;;;20.21;42.50
29879;BME280;16752;53.364;-1.488;2023-06-10T05:29:30;100472.63;;;20.90;41.70
29879;BME280;16752;53.364;-1.488;2023-06-10T05:32:14;100489.09;;;20.94;41.93
29879;BME280;16752;53.364;-1.488;2023-06-10T05:34:58;100492.25;;;20.97;41.59
29879;BME280;16752;53.364;-1.488;2023-06-10T05:37:44;100525.44;;;21.35;41.26
29879;BME280;16752;53.364;-1.488;2023-06-10T05:40:28;100387.03;;;20.53;40.95
29879;BME280;16752;53.364;-1.488;2023-06-10T05:43:13;100468.81;;;21.09;41.03
29879;BME280;16752;53.364;-1.488;2023-06-10T05:46:00;100367.06;;;20.49;40.87
29879;BME280;16752;53.364;-1.488;2023-06-10T05:48:44;100479.22;;;20.62;42.31
29879;BME280;16752;53.364;-1.488;2023-06-10T05:51:28;100426.19;;;20.93;40.61
29879;BME280;16752;53.364;-1.488;2023-06-10T05:54:19;100515.94;;;21.25;40.87
29879;BME280;16752;53.364;-1.488;2023-06-10T05:57:03;100450.81;;;21.03;40.96
29879;BME280;16752;53.364;-1.488;2023-06-10T05:59:47;100443.16;;;21.00;40.77
29879;BME280;16752;53.364;-1.488;2023-06-10T06:02:34;100366.91;;;20.42;41.00
29879;BME280;16752;53.364;-1.488;2023-06-10T06:05:18;100437.16;;;20.90;41.13
29879;BME280;16752;53.364;-1.488;2023-06-10T06:08:05;100538.75;;;21.68;40.77
29879;BME280;16752;53.364;-1.488;2023-06-10T06:10:52;100472.28;;;20.93;41.90
29879;BME280;16752;53.364;-1.488;2023-06-10T06:13:44;100532.56;;;21.84;39.93
29879;BME280;16752;53.364;-1.488;2023-06-10T06:16:28;100534.91;;;21.79;40.46
29879;BME280;16752;53.364;-1.488;2023-06-10T06:19:12;100457.50;;;21.48;39.91
29879;BME280;16752;53.364;-1.488;2023-06-10T06:21:59;100436.00;;;21.41;40.09
29879;BME280;16752;53.364;-1.488;2023-06-10T06:24:46;100441.31;;;21.57;39.97
29879;BME280;16752;53.364;-1.488;2023-06-10T06:27:31;100395.53;;;21.13;39.91
29879;BME280;16752;53.364;-1.488;2023-06-10T06:30:15;100431.13;;;21.61;39.38
29879;BME280;16752;53.364;-1.488;2023-06-10T06:32:59;100518.53;;;21.98;39.59
29879;BME280;16752;53.364;-1.488;2023-06-10T06:35:43;100430.16;;;21.54;40.04
29879;BME280;16752;53.364;-1.488;2023-06-10T06:38:27;100481.84;;;22.08;39.65
29879;BME280;16752;53.364;-1.488;2023-06-10T06:41:11;100508.53;;;22.47;39.32
29879;BME280;16752;53.364;-1.488;2023-06-10T06:43:55;100438.66;;;22.13;38.77
29879;BME280;16752;53.364;-1.488;2023-06-10T06:46:43;100469.88;;;22.43;38.35
29879;BME280;16752;53.364;-1.488;2023-06-10T06:49:28;100527.69;;;22.20;39.71
29879;BME280;16752;53.364;-1.488;2023-06-10T06:52:17;100464.66;;;22.03;39.75
29879;BME280;16752;53.364;-1.488;2023-06-10T06:55:04;100479.19;;;22.47;38.61
29879;BME280;16752;53.364;-1.488;2023-06-10T06:57:48;100461.84;;;22.12;39.43
29879;BME280;16752;53.364;-1.488;2023-06-10T07:00:32;100440.66;;;22.03;39.51
29879;BME280;16752;53.364;-1.488;2023-06-10T07:03:16;100471.44;;;22.61;38.40
29879;BME280;16752;53.364;-1.488;2023-06-10T07:06:00;100487.63;;;22.90;38.34
29879;BME280;16752;53.364;-1.488;2023-06-10T07:08:52;100521.41;;;23.29;37.97
29879;BME280;16752;53.364;-1.488;2023-06-10T07:11:38;100379.81;;;22.37;38.14
29879;BME280;16752;53.364;-1.488;2023-06-10T07:14:25;100384.63;;;22.42;38.22
29879;BME280;16752;53.364;-1.488;2023-06-10T07:17:09;100440.88;;;22.63;38.96
29879;BME280;16752;53.364;-1.488;2023-06-10T07:19:53;100481.69;;;23.26;37.56
29879;BME280;16752;53.364;-1.488;2023-06-10T07:22:39;100443.97;;;22.98;37.75
29879;BME280;16752;53.364;-1.488;2023-06-10T07:25:23;100388.78;;;22.67;37.48
29879;BME280;16752;53.364;-1.488;2023-06-10T07:28:12;100472.38;;;23.36;37.12
29879;BME280;16752;53.364;-1.488;2023-06-10T07:30:57;100449.44;;;23.42;37.07
29879;BME280;16752;53.364;-1.488;2023-06-10T07:33:50;100394.13;;;23.28;36.82
29879;BME280;16752;53.364;-1.488;2023-06-10T07:36:34;100371.09;;;23.27;37.04
29879;BME280;16752;53.364;-1.488;2023-06-10T07:39:58;100521.59;;;23.27;39.18
29879;BME280;16752;53.364;-1.488;2023-06-10T07:42:59;100427.91;;;23.58;37.63
29879;BME280;16752;53.364;-1.488;2023-06-10T07:45:46;100460.91;;;24.24;36.29
29879;BME280;16752;53.364;-1.488;2023-06-10T07:48:33;100390.78;;;24.14;35.35
29879;BME280;16752;53.364;-1.488;2023-06-10T07:51:17;100454.66;;;24.17;36.93
29879;BME280;16752;53.364;-1.488;2023-06-10T07:54:01;100430.84;;;24.22;36.43
29879;BME280;16752;53.364;-1.488;2023-06-10T07:57:26;100477.47;;;23.84;37.60
29879;BME280;16752;53.364;-1.488;2023-06-10T08:03:16;100435.09;;;25.10;34.67
29879;BME280;16752;53.364;-1.488;2023-06-10T08:06:02;100400.38;;;25.02;34.21
29879;BME280;16752;53.364;-1.488;2023-06-10T08:08:58;100463.44;;;25.47;34.95
29879;BME280;16752;53.364;-1.488;2023-06-10T08:12:14;100487.50;;;25.90;34.48
29879;BME280;16752;53.364;-1.488;2023-06-10T08:15:01;100474.22;;;25.05;35.38
29879;BME280;16752;53.364;-1.488;2023-06-10T08:17:52;100390.72;;;24.86;35.83
29879;BME280;16752;53.364;-1.488;2023-06-10T08:20:58;100506.63;;;25.31;35.92
29879;BME280;16752;53.364;-1.488;2023-06-10T08:27:23;100517.09;;;26.92;33.00
29879;BME280;16752;53.364;-1.488;2023-06-10T08:30:11;100445.34;;;26.32;33.70
29879;BME280;16752;53.364;-1.488;2023-06-10T08:39:57;100502.69;;;27.33;33.13
29879;BME280;16752;53.364;-1.488;2023-06-10T08:43:18;100469.56;;;27.19;33.31
29879;BME280;16752;53.364;-1.488;2023-06-10T08:46:08;100460.03;;;27.03;33.41
29879;BME280;16752;53.364;-1.488;2023-06-10T08:48:55;100377.44;;;26.58;34.38
29879;BME280;16752;53.364;-1.488;2023-06-10T08:52:11;100494.78;;;27.51;33.33
29879;BME280;16752;53.364;-1.488;2023-06-10T08:55:21;100489.66;;;27.63;33.14
29879;BME280;16752;53.364;-1.488;2023-06-10T08:58:15;100456.28;;;27.77;32.36
29879;BME280;16752;53.364;-1.488;2023-06-10T09:01:32;100495.97;;;28.08;31.74
29879;BME280;16752;53.364;-1.488;2023-06-10T09:04:42;100434.75;;;27.77;31.39
29879;BME280;16752;53.364;-1.488;2023-06-10T09:07:52;100390.25;;;27.48;31.68
29879;BME280;16752;53.364;-1.488;2023-06-10T09:11:17;100477.94;;;28.09;31.90
29879;BME280;16752;53.364;-1.488;2023-06-10T09:14:01;100385.28;;;27.65;32.54
29879;BME280;16752;53.364;-1.488;2023-06-10T09:21:10;100480.69;;;28.53;32.55
29879;BME280;16752;53.364;-1.488;2023-06-10T09:24:18;100426.88;;;28.34;32.04
29879;BME280;16752;53.364;-1.488;2023-06-10T09:27:16;100345.19;;;28.02;31.95
29879;BME280;16752;53.364;-1.488;2023-06-10T09:29:59;100432.25;;;28.72;31.19
29879;BME280;16752;53.364;-1.488;2023-06-10T09:33:23;100357.41;;;27.26;33.22
29879;BME280;16752;53.364;-1.488;2023-06-10T09:40:08;100399.03;;;28.78;31.47
29879;BME280;16752;53.364;-1.488;2023-06-10T09:46:19;100462.72;;;29.35;31.46
29879;BME280;16752;53.364;-1.488;2023-06-10T09:55:38;100397.41;;;29.52;30.79
29879;BME280;16752;53.364;-1.488;2023-06-10T09:59:07;100461.13;;;29.71;31.24
29879;BME280;16752;53.364;-1.488;2023-06-10T10:02:05;100385.78;;;29.44;31.49
29879;BME280;16752;53.364;-1.488;2023-06-10T10:05:14;100371.19;;;29.89;30.23
29879;BME280;16752;53.364;-1.488;2023-06-10T10:11:55;100452.69;;;30.22;31.64
29879;BME280;16752;53.364;-1.488;2023-06-10T10:22:18;100411.28;;;30.70;29.31
29879;BME280;16752;53.364;-1.488;2023-06-10T10:32:38;100461.66;;;31.36;28.68
29879;BME280;16752;53.364;-1.488;2023-06-10T10:35:55;100365.38;;;29.73;30.82
29879;BME280;16752;53.364;-1.488;2023-06-10T10:38:47;100395.69;;;29.75;31.47
29879;BME280;16752;53.364;-1.488;2023-06-10T10:41:46;100328.50;;;30.69;30.08
29879;BME280;16752;53.364;-1.488;2023-06-10T10:51:38;100451.16;;;30.63;29.90
29879;BME280;16752;53.364;-1.488;2023-06-10T11:01:17;100371.50;;;31.99;28.13
29879;BME280;16752;53.364;-1.488;2023-06-10T11:04:07;100401.94;;;32.18;28.18
29879;BME280;16752;53.364;-1.488;2023-06-10T11:07:05;100393.69;;;31.84;29.09
29879;BME280;16752;53.364;-1.488;2023-06-10T11:41:35;100400.38;;;33.46;27.17
29879;BME280;16752;53.364;-1.488;2023-06-10T11:44:59;100321.72;;;33.18;27.69
29879;BME280;16752;53.364;-1.488;2023-06-10T11:48:08;100421.84;;;33.86;27.02
29879;BME280;16752;53.364;-1.488;2023-06-10T11:51:17;100299.25;;;33.22;27.54
29879;BME280;16752;53.364;-1.488;2023-06-10T11:54:20;100292.91;;;33.33;26.30
29879;BME280;16752;53.364;-1.488;2023-06-10T12:08:21;100331.78;;;33.83;28.05
29879;BME280;16752;53.364;-1.488;2023-06-10T12:11:16;100315.28;;;34.38;25.73
29879;BME280;16752;53.364;-1.488;2023-06-10T12:14:05;100273.44;;;33.85;27.47
29879;BME280;16752;53.364;-1.488;2023-06-10T12:16:53;100328.72;;;34.50;25.98
29879;BME280;16752;53.364;-1.488;2023-06-10T12:19:48;100377.22;;;34.90;26.32
29879;BME280;16752;53.364;-1.488;2023-06-10T12:36:18;100309.97;;;34.26;26.57
29879;BME280;16752;53.364;-1.488;2023-06-10T12:53:52;100368.44;;;35.67;25.82
29879;BME280;16752;53.364;-1.488;2023-06-10T12:57:05;100316.50;;;35.94;24.76
29879;BME280;16752;53.364;-1.488;2023-06-10T13:00:08;100251.81;;;35.69;24.92
29879;BME280;16752;53.364;-1.488;2023-06-10T13:13:45;100285.38;;;37.07;23.16
29879;BME280;16752;53.364;-1.488;2023-06-10T13:16:36;100218.00;;;36.77;24.11
29879;BME280;16752;53.364;-1.488;2023-06-10T13:25:32;100333.72;;;37.91;23.38
29879;BME280;16752;53.364;-1.488;2023-06-10T13:28:25;100277.66;;;37.40;23.12
29879;BME280;16752;53.364;-1.488;2023-06-10T13:31:13;100252.50;;;37.87;23.12
29879;BME280;16752;53.364;-1.488;2023-06-10T13:36:57;100320.63;;;37.83;23.36
29879;BME280;16752;53.364;-1.488;2023-06-10T13:39:54;100321.75;;;38.27;23.14
29879;BME280;16752;53.364;-1.488;2023-06-10T13:42:44;100316.06;;;38.52;22.05
29879;BME280;16752;53.364;-1.488;2023-06-10T13:52:04;100206.66;;;37.69;22.33
29879;BME280;16752;53.364;-1.488;2023-06-10T13:55:22;100297.59;;;38.68;21.76
29879;BME280;16752;53.364;-1.488;2023-06-10T13:58:14;100246.19;;;38.31;22.44
29879;BME280;16752;53.364;-1.488;2023-06-10T14:01:36;100285.78;;;38.96;21.98
29879;BME280;16752;53.364;-1.488;2023-06-10T14:26:52;100186.69;;;40.07;19.02
29879;BME280;16752;53.364;-1.488;2023-06-10T14:29:57;100156.13;;;38.82;19.84
29879;BME280;16752;53.364;-1.488;2023-06-10T14:32:49;100225.09;;;39.88;19.60
29879;BME280;16752;53.364;-1.488;2023-06-10T14:35:33;100234.72;;;39.10;19.07
29879;BME280;16752;53.364;-1.488;2023-06-10T14:42:11;100160.22;;;39.65;19.73
29879;BME280;16752;53.364;-1.488;2023-06-10T14:45:08;100192.78;;;38.62;20.00
29879;BME280;16752;53.364;-1.488;2023-06-10T14:47:54;100268.28;;;39.83;19.60
29879;BME280;16752;53.364;-1.488;2023-06-10T14:50:38;100257.75;;;39.71;19.00
29879;BME280;16752;53.364;-1.488;2023-06-10T14:53:31;100190.06;;;39.10;18.74
29879;BME280;16752;53.364;-1.488;2023-06-10T14:56:15;100218.25;;;37.55;20.28
29879;BME280;16752;53.364;-1.488;2023-06-10T14:59:11;100172.88;;;39.61;19.34
29879;BME280;16752;53.364;-1.488;2023-06-10T15:02:25;100180.59;;;40.43;18.53
29879;BME280;16752;53.364;-1.488;2023-06-10T15:05:30;100130.13;;;38.79;18.65
29879;BME280;16752;53.364;-1.488;2023-06-10T15:11:37;100106.31;;;39.74;17.89
29879;BME280;16752;53.364;-1.488;2023-06-10T15:14:50;100129.97;;;39.70;18.34
29879;BME280;16752;53.364;-1.488;2023-06-10T15:17:56;100246.75;;;42.01;16.72
29879;BME280;16752;53.364;-1.488;2023-06-10T15:21:04;100244.81;;;41.15;16.40
29879;BME280;16752;53.364;-1.488;2023-06-10T15:23:48;100171.34;;;39.87;17.76
29879;BME280;16752;53.364;-1.488;2023-06-10T15:26:34;100210.81;;;40.24;18.00
29879;BME280;16752;53.364;-1.488;2023-06-10T15:29:20;100245.81;;;41.47;16.90
29879;BME280;16752;53.364;-1.488;2023-06-10T15:35:22;100125.28;;;43.30;14.31
29879;BME280;16752;53.364;-1.488;2023-06-10T15:38:54;100132.16;;;43.97;14.05
29879;BME280;16752;53.364;-1.488;2023-06-10T15:51:48;100114.53;;;43.54;13.97
29879;BME280;16752;53.364;-1.488;2023-06-10T15:54:34;100228.53;;;46.17;12.71
29879;BME280;16752;53.364;-1.488;2023-06-10T15:57:41;100221.59;;;45.78;12.59
29879;BME280;16752;53.364;-1.488;2023-06-10T16:03:08;100218.28;;;44.84;13.78
29879;BME280;16752;53.364;-1.488;2023-06-10T16:05:52;100180.50;;;45.47;13.37
29879;BME280;16752;53.364;-1.488;2023-06-10T16:11:47;100210.88;;;46.42;12.54
29879;BME280;16752;53.364;-1.488;2023-06-10T16:14:34;100107.22;;;46.83;11.85
29879;BME280;16752;53.364;-1.488;2023-06-10T16:17:34;100130.94;;;45.54;12.92
29879;BME280;16752;53.364;-1.488;2023-06-10T16:20:18;100174.06;;;44.84;13.43
29879;BME280;16752;53.364;-1.488;2023-06-10T16:23:18;100195.03;;;44.55;13.75
29879;BME280;16752;53.364;-1.488;2023-06-10T16:29:20;100194.25;;;42.11;15.80
29879;BME280;16752;53.364;-1.488;2023-06-10T16:32:10;100090.94;;;39.40;18.22
29879;BME280;16752;53.364;-1.488;2023-06-10T16:35:04;100209.28;;;40.18;18.84
29879;BME280;16752;53.364;-1.488;2023-06-10T16:41:32;100154.31;;;37.90;20.89
29879;BME280;16752;53.364;-1.488;2023-06-10T16:44:38;100202.06;;;38.66;20.93
29879;BME280;16752;53.364;-1.488;2023-06-10T16:47:45;100152.31;;;38.83;20.40
29879;BME280;16752;53.364;-1.488;2023-06-10T16:50:41;100094.38;;;37.94;21.17
29879;BME280;16752;53.364;-1.488;2023-06-10T16:53:38;100129.22;;;38.41;20.81
29879;BME280;16752;53.364;-1.488;2023-06-10T16:56:31;100064.91;;;37.52;21.95
29879;BME280;16752;53.364;-1.488;2023-06-10T16:59:37;100091.41;;;37.56;21.26
29879;BME280;16752;53.364;-1.488;2023-06-10T17:02:55;100220.19;;;37.50;22.31
29879;BME280;16752;53.364;-1.488;2023-06-10T17:05:39;100142.00;;;37.05;22.53
29879;BME280;16752;53.364;-1.488;2023-06-10T17:08:26;100212.25;;;37.53;22.56
29879;BME280;16752;53.364;-1.488;2023-06-10T17:11:12;100075.41;;;36.31;22.77
29879;BME280;16752;53.364;-1.488;2023-06-10T17:14:02;100220.75;;;36.82;23.39
29879;BME280;16752;53.364;-1.488;2023-06-10T17:16:48;100141.69;;;36.31;22.80
29879;BME280;16752;53.364;-1.488;2023-06-10T17:26:15;100127.44;;;35.22;24.76
29879;BME280;16752;53.364;-1.488;2023-06-10T17:29:06;100232.72;;;35.74;24.24
29879;BME280;16752;53.364;-1.488;2023-06-10T17:32:24;100113.50;;;35.04;23.88
29879;BME280;16752;53.364;-1.488;2023-06-10T17:41:07;100176.81;;;35.51;23.99
29879;BME280;16752;53.364;-1.488;2023-06-10T17:44:10;100192.16;;;34.95;24.87
29879;BME280;16752;53.364;-1.488;2023-06-10T17:47:18;100173.81;;;34.75;24.67
29879;BME280;16752;53.364;-1.488;2023-06-10T17:50:03;100174.63;;;34.76;24.38
29879;BME280;16752;53.364;-1.488;2023-06-10T17:52:59;100183.75;;;34.54;24.89
29879;BME280;16752;53.364;-1.488;2023-06-10T17:55:46;100208.16;;;34.44;24.77
29879;BME280;16752;53.364;-1.488;2023-06-10T17:58:33;100179.44;;;34.63;24.51
29879;BME280;16752;53.364;-1.488;2023-06-10T18:01:17;100146.47;;;34.13;24.93
29879;BME280;16752;53.364;-1.488;2023-06-10T18:04:03;100179.69;;;34.57;24.77
29879;BME280;16752;53.364;-1.488;2023-06-10T18:06:50;100201.94;;;34.17;25.23
29879;BME280;16752;53.364;-1.488;2023-06-10T18:09:34;100191.88;;;33.58;25.51
29879;BME280;16752;53.364;-1.488;2023-06-10T18:12:19;100189.13;;;34.07;25.24
29879;BME280;16752;53.364;-1.488;2023-06-10T18:15:04;100265.91;;;34.51;25.25
29879;BME280;16752;53.364;-1.488;2023-06-10T18:17:49;100209.16;;;33.74;25.98
29879;BME280;16752;53.364;-1.488;2023-06-10T18:20:33;100183.06;;;33.46;25.95
29879;BME280;16752;53.364;-1.488;2023-06-10T18:23:16;100176.81;;;33.46;26.39
29879;BME280;16752;53.364;-1.488;2023-06-10T18:26:00;100200.03;;;33.58;25.90
29879;BME280;16752;53.364;-1.488;2023-06-10T18:28:44;100243.97;;;33.77;26.43
29879;BME280;16752;53.364;-1.488;2023-06-10T18:31:28;100169.56;;;33.07;26.64
29879;BME280;16752;53.364;-1.488;2023-06-10T18:34:12;100178.53;;;31.97;27.41
29879;BME280;16752;53.364;-1.488;2023-06-10T18:36:56;100226.47;;;33.19;26.47
29879;BME280;16752;53.364;-1.488;2023-06-10T18:39:43;100281.84;;;33.40;26.58
29879;BME280;16752;53.364;-1.488;2023-06-10T18:42:28;100171.72;;;32.67;27.34
29879;BME280;16752;53.364;-1.488;2023-06-10T18:45:24;100297.41;;;33.06;27.08
29879;BME280;16752;53.364;-1.488;2023-06-10T18:48:08;100298.34;;;33.33;26.87
29879;BME280;16752;53.364;-1.488;2023-06-10T18:50:53;100225.22;;;32.71;27.59
29879;BME280;16752;53.364;-1.488;2023-06-10T18:53:37;100261.78;;;32.80;27.25
29879;BME280;16752;53.364;-1.488;2023-06-10T18:56:21;100266.03;;;32.26;27.76
29879;BME280;16752;53.364;-1.488;2023-06-10T18:59:05;100219.06;;;32.37;27.38
29879;BME280;16752;53.364;-1.488;2023-06-10T19:01:49;100251.66;;;32.42;27.69
29879;BME280;16752;53.364;-1.488;2023-06-10T19:04:34;100225.94;;;32.11;27.96
29879;BME280;16752;53.364;-1.488;2023-06-10T19:07:17;100235.41;;;31.80;28.08
29879;BME280;16752;53.364;-1.488;2023-06-10T19:10:02;100235.56;;;31.74;28.29
29879;BME280;16752;53.364;-1.488;2023-06-10T19:12:46;100295.72;;;32.33;27.90
29879;BME280;16752;53.364;-1.488;2023-06-10T19:15:30;100276.94;;;32.14;28.08